Kalar Kahar Weather



Kalar Kahar's Current Weather

Temprature 26.932o clear sky

clear sky

Rain: 0 %

Min Temprature26.932o
Max Temprature26.932o
Humidity38
Wind Speed6.32 m/h
Sun Rise06:14:51
Sun Set17:33:45
Current Time: 18-Oct-2019 16:37:29
Lat/Lon: 32.78, 72.7




Kalar Kahar's Geo Location



Kalar Kahar's Weather Forecast

Time Overall Temp Min Temp Max Temp Humidity Wind Speed Rain
18-Oct-2019 (Fri)
17:00:00 clear sky 24.780 24.780 26.932 38 6.32 m/h 0 %
20:00:00 light rain 22.210 22.210 23.823 44 2.07 m/h 75 %
23:00:00 light rain 21.630 21.630 22.699 48 8.64 m/h 106 %
19-Oct-2019 (Sat)
02:00:00 overcast clouds 23.420 23.420 23.958 29 2.03 m/h 0 %
05:00:00 overcast clouds 21.358 21.358 21.358 42 2.65 m/h 0 %
08:00:00 scattered clouds 22.792 22.792 22.792 44 0.17 m/h 0 %
11:00:00 few clouds 27.710 27.710 27.710 29 2.89 m/h 0 %
14:00:00 broken clouds 29.413 29.413 29.413 24 2.88 m/h 0 %
17:00:00 scattered clouds 28.194 28.194 28.194 26 2.84 m/h 0 %
20:00:00 clear sky 24.211 24.211 24.211 36 2.09 m/h 0 %
23:00:00 clear sky 22.284 22.284 22.284 41 1.08 m/h 0 %
20-Oct-2019 (Sun)
02:00:00 clear sky 20.887 20.887 20.887 45 0.43 m/h 0 %
05:00:00 clear sky 19.798 19.798 19.798 47 0.73 m/h 0 %
08:00:00 clear sky 23.974 23.974 23.974 33 0.87 m/h 0 %
11:00:00 clear sky 28.130 28.130 28.130 25 2.19 m/h 0 %
14:00:00 broken clouds 30.013 30.013 30.013 20 3.25 m/h 0 %
17:00:00 overcast clouds 28.421 28.421 28.421 23 2.52 m/h 0 %
20:00:00 overcast clouds 24.323 24.323 24.323 32 0.97 m/h 0 %
23:00:00 broken clouds 22.079 22.079 22.079 36 0.38 m/h 0 %
21-Oct-2019 (Mon)
02:00:00 clear sky 20.766 20.766 20.766 38 0.68 m/h 0 %
05:00:00 clear sky 20.327 20.327 20.327 36 1.56 m/h 0 %
08:00:00 clear sky 24.312 24.312 24.312 29 1.42 m/h 0 %
11:00:00 clear sky 28.675 28.675 28.675 22 1.38 m/h 0 %
14:00:00 clear sky 30.378 30.378 30.378 19 1.95 m/h 0 %
17:00:00 clear sky 28.904 28.904 28.904 23 2.71 m/h 0 %
20:00:00 clear sky 24.413 24.413 24.413 32 1.17 m/h 0 %
23:00:00 clear sky 22.804 22.804 22.804 35 1.41 m/h 0 %
22-Oct-2019 (Tue)
02:00:00 clear sky 21.932 21.932 21.932 35 1.99 m/h 0 %
05:00:00 clear sky 20.436 20.436 20.436 38 1.8 m/h 0 %
08:00:00 clear sky 23.821 23.821 23.821 30 1.05 m/h 0 %
11:00:00 clear sky 28.085 28.085 28.085 23 2.11 m/h 0 %
14:00:00 clear sky 30.299 30.299 30.299 19 2.27 m/h 0 %
17:00:00 clear sky 28.709 28.709 28.709 22 2.43 m/h 0 %
20:00:00 broken clouds 25.050 25.050 25.050 29 1.22 m/h 0 %
23:00:00 broken clouds 24.702 24.702 24.702 30 2.67 m/h 0 %
23-Oct-2019 (Wed)
02:00:00 overcast clouds 23.175 23.175 23.175 33 2.44 m/h 0 %
05:00:00 overcast clouds 21.578 21.578 21.578 35 1.27 m/h 0 %
08:00:00 overcast clouds 24.563 24.563 24.563 28 2.31 m/h 0 %
11:00:00 overcast clouds 28.604 28.604 28.604 21 4.62 m/h 0 %
14:00:00 clear sky 30.111 30.111 30.111 20 4 m/h 0 %

Famous Cities (61)